TOM3PG EGCC-LGRP
Flight info
| Callsign | TOM3PG |
|---|---|
| Flight time | 3h 50m |
| Altitude | 35000 |
| Route | SONEX UL975 DESIG L603 DOLAS DCT NAVPI DCT DOJOH DCT DODEN DCT NEGIX DCT DINKU M867 XERUM DCT BAVAX DCT RADIZ DCT DOL DCT MONID DCT NAVSU DCT EMKES DCT XELMI DCT AKIKA DCT ENFAR DCT PEP DCT TALAS UN130 MES UN139 LURUS UL995 CODIC |
| Aircraft | B38M/M-SDE1FGHILORVWXY/HB1 |
Departure
| Time | 2026-05-07 22:06 |
|---|---|
| Airport | Manchester Airport (EGCC) |
Arrival
| Time | 2026-05-08 01:56 |
|---|---|
| Airport | Rhodes International Airport "Diagoras" (LGRP) |
| Time | Latitude | Longitude | Altitude | Speed | Heading |
|---|---|---|---|---|---|
| 2026-05-07 21:35 | 53.36009 | -2.26926 | 258 ft | 0 kts | 314° |
| 2026-05-07 21:57 | 53.36008 | -2.26926 | 258 ft | 1 kts | 314° |
| 2026-05-07 21:57 | 53.35994 | -2.26894 | 258 ft | 4 kts | 294° |
| 2026-05-07 21:58 | 53.35989 | -2.26853 | 258 ft | 4 kts | 265° |
| 2026-05-07 21:58 | 53.35997 | -2.26811 | 258 ft | 4 kts | 237° |
| 2026-05-07 21:58 | 53.36002 | -2.26798 | 258 ft | 2 kts | 231° |
| 2026-05-07 22:01 | 53.36002 | -2.26799 | 258 ft | 0 kts | 231° |
| 2026-05-07 22:02 | 53.35997 | -2.26809 | 258 ft | 2 kts | 230° |
| 2026-05-07 22:02 | 53.35984 | -2.26828 | 258 ft | 3 kts | 216° |
| 2026-05-07 22:02 | 53.35959 | -2.26842 | 258 ft | 4 kts | 181° |
| 2026-05-07 22:02 | 53.35934 | -2.26817 | 258 ft | 4 kts | 123° |
| 2026-05-07 22:03 | 53.35932 | -2.26765 | 258 ft | 5 kts | 73° |
| 2026-05-07 22:03 | 53.35951 | -2.26714 | 258 ft | 6 kts | 52° |
| 2026-05-07 22:03 | 53.35978 | -2.26656 | 258 ft | 7 kts | 51° |
| 2026-05-07 22:03 | 53.36012 | -2.26586 | 258 ft | 8 kts | 51° |
| 2026-05-07 22:04 | 53.36052 | -2.26502 | 258 ft | 10 kts | 51° |
| 2026-05-07 22:04 | 53.36099 | -2.26406 | 258 ft | 11 kts | 51° |
| 2026-05-07 22:04 | 53.36142 | -2.26293 | 258 ft | 11 kts | 84° |
| 2026-05-07 22:04 | 53.36110 | -2.26212 | 257 ft | 8 kts | 143° |
| 2026-05-07 22:05 | 53.36071 | -2.26158 | 259 ft | 6 kts | 141° |
| 2026-05-07 22:05 | 53.36027 | -2.26156 | 261 ft | 8 kts | 212° |
| 2026-05-07 22:05 | 53.35905 | -2.26398 | 269 ft | 63 kts | 231° |
| 2026-05-07 22:05 | 53.35464 | -2.27310 | 251 ft | 137 kts | 231° |
| 2026-05-07 22:06 | 53.34809 | -2.28662 | 247 ft | 148 kts | 230° |
| 2026-05-07 22:06 | 53.33949 | -2.30484 | 1584 ft | 239 kts | 229° |
| 2026-05-07 22:06 | 53.33020 | -2.32394 | 2591 ft | 208 kts | 228° |
| 2026-05-07 22:06 | 53.32372 | -2.34427 | 3669 ft | 186 kts | 264° |
| 2026-05-07 22:07 | 53.32608 | -2.36574 | 4455 ft | 198 kts | 287° |
| 2026-05-07 22:07 | 53.33148 | -2.38785 | 4932 ft | 213 kts | 290° |
| 2026-05-07 22:07 | 53.33970 | -2.40951 | 5401 ft | 230 kts | 308° |
| 2026-05-07 22:07 | 53.35180 | -2.42747 | 6083 ft | 234 kts | 321° |
| 2026-05-07 22:08 | 53.36577 | -2.44117 | 6891 ft | 230 kts | 331° |
| 2026-05-07 22:08 | 53.38037 | -2.45036 | 7685 ft | 225 kts | 341° |
| 2026-05-07 22:08 | 53.39605 | -2.44982 | 8173 ft | 236 kts | 21° |
| 2026-05-07 22:08 | 53.40833 | -2.43209 | 8626 ft | 238 kts | 66° |
| 2026-05-07 22:09 | 53.41058 | -2.40561 | 9130 ft | 230 kts | 104° |
| 2026-05-07 22:09 | 53.40839 | -2.37880 | 9722 ft | 240 kts | 88° |
| 2026-05-07 22:09 | 53.41426 | -2.35206 | 10105 ft | 266 kts | 55° |
| 2026-05-07 22:09 | 53.42642 | -2.32736 | 10597 ft | 282 kts | 53° |
| 2026-05-07 22:10 | 53.43880 | -2.30098 | 11209 ft | 293 kts | 53° |
| 2026-05-07 22:10 | 53.45155 | -2.27353 | 11908 ft | 302 kts | 53° |
| 2026-05-07 22:10 | 53.46456 | -2.24531 | 12672 ft | 309 kts | 53° |
| 2026-05-07 22:10 | 53.47775 | -2.21661 | 13467 ft | 311 kts | 53° |
| 2026-05-07 22:11 | 53.49098 | -2.18768 | 14217 ft | 312 kts | 54° |
| 2026-05-07 22:11 | 53.50066 | -2.15537 | 14884 ft | 310 kts | 79° |
| 2026-05-07 22:11 | 53.50392 | -2.11958 | 15584 ft | 311 kts | 83° |
| 2026-05-07 22:11 | 53.50749 | -2.08366 | 16293 ft | 312 kts | 82° |
| 2026-05-07 22:12 | 53.51118 | -2.04761 | 17023 ft | 313 kts | 82° |
| 2026-05-07 22:12 | 53.51488 | -2.01196 | 17740 ft | 314 kts | 82° |
| 2026-05-07 22:12 | 53.51863 | -1.97587 | 18441 ft | 314 kts | 82° |
| 2026-05-07 22:12 | 53.52239 | -1.93973 | 19042 ft | 314 kts | 82° |
| 2026-05-07 22:13 | 53.52592 | -1.90360 | 19624 ft | 313 kts | 88° |
| 2026-05-07 22:13 | 53.52382 | -1.86779 | 20152 ft | 306 kts | 111° |
| 2026-05-07 22:13 | 53.51694 | -1.83414 | 20720 ft | 305 kts | 109° |
| 2026-05-07 22:13 | 53.51094 | -1.79981 | 21256 ft | 305 kts | 109° |
| 2026-05-07 22:14 | 53.50495 | -1.76562 | 21767 ft | 305 kts | 109° |
| 2026-05-07 22:14 | 53.49893 | -1.73147 | 22273 ft | 305 kts | 109° |
| 2026-05-07 22:14 | 53.49291 | -1.69734 | 22760 ft | 304 kts | 109° |
| 2026-05-07 22:14 | 53.48690 | -1.66331 | 23209 ft | 304 kts | 109° |
| 2026-05-07 22:15 | 53.48086 | -1.62926 | 23638 ft | 304 kts | 109° |
| 2026-05-07 22:15 | 53.47481 | -1.59519 | 23981 ft | 304 kts | 109° |
| 2026-05-07 22:15 | 53.46873 | -1.56115 | 24311 ft | 304 kts | 109° |
| 2026-05-07 22:15 | 53.46265 | -1.52714 | 24634 ft | 304 kts | 109° |
| 2026-05-07 22:16 | 53.45655 | -1.49315 | 24936 ft | 304 kts | 109° |
| 2026-05-07 22:16 | 53.45044 | -1.45909 | 25239 ft | 304 kts | 109° |
| 2026-05-07 22:16 | 53.44434 | -1.42522 | 25539 ft | 303 kts | 109° |
| 2026-05-07 22:16 | 53.43826 | -1.39145 | 25814 ft | 302 kts | 109° |
| 2026-05-07 22:17 | 53.43216 | -1.35771 | 26063 ft | 302 kts | 109° |
| 2026-05-07 22:17 | 53.42606 | -1.32399 | 26303 ft | 302 kts | 109° |
| 2026-05-07 22:17 | 53.42002 | -1.29066 | 26528 ft | 302 kts | 109° |
| 2026-05-07 22:17 | 53.41392 | -1.25695 | 26745 ft | 302 kts | 109° |
| 2026-05-07 22:18 | 53.40782 | -1.22332 | 26954 ft | 302 kts | 110° |
| 2026-05-07 22:18 | 53.39557 | -1.15605 | 27337 ft | 302 kts | 109° |
| 2026-05-07 22:18 | 53.38941 | -1.12231 | 27518 ft | 302 kts | 109° |
| 2026-05-07 22:19 | 53.38326 | -1.08870 | 27690 ft | 302 kts | 110° |
| 2026-05-07 22:19 | 53.37709 | -1.05505 | 27852 ft | 302 kts | 110° |
| 2026-05-07 22:19 | 53.37091 | -1.02140 | 28002 ft | 302 kts | 109° |
| 2026-05-07 22:19 | 53.36472 | -0.98780 | 28161 ft | 302 kts | 109° |
| 2026-05-07 22:20 | 53.35853 | -0.95419 | 28308 ft | 302 kts | 110° |
| 2026-05-07 22:20 | 53.35233 | -0.92058 | 28466 ft | 301 kts | 110° |
| 2026-05-07 22:20 | 53.34613 | -0.88710 | 28607 ft | 302 kts | 110° |
| 2026-05-07 22:20 | 53.33991 | -0.85355 | 28731 ft | 302 kts | 110° |
| 2026-05-07 22:21 | 53.33369 | -0.82003 | 28846 ft | 302 kts | 110° |
| 2026-05-07 22:21 | 53.32743 | -0.78640 | 28955 ft | 302 kts | 110° |
| 2026-05-07 22:21 | 53.32127 | -0.75333 | 29060 ft | 302 kts | 110° |
| 2026-05-07 22:21 | 53.31494 | -0.71939 | 29165 ft | 302 kts | 110° |
| 2026-05-07 22:22 | 53.30866 | -0.68580 | 29265 ft | 302 kts | 110° |
| 2026-05-07 22:22 | 53.29614 | -0.61908 | 29447 ft | 303 kts | 110° |
| 2026-05-07 22:23 | 53.28351 | -0.55192 | 29626 ft | 303 kts | 110° |
| 2026-05-07 22:23 | 53.27082 | -0.48469 | 29767 ft | 303 kts | 110° |
| 2026-05-07 22:24 | 53.25808 | -0.41746 | 29912 ft | 303 kts | 110° |
| 2026-05-07 22:24 | 53.24529 | -0.35021 | 29995 ft | 305 kts | 110° |
| 2026-05-07 22:25 | 53.23240 | -0.28268 | 30071 ft | 306 kts | 110° |
| 2026-05-07 22:25 | 53.21944 | -0.21500 | 30158 ft | 306 kts | 110° |
| 2026-05-07 22:26 | 53.20641 | -0.14719 | 30244 ft | 307 kts | 110° |
| 2026-05-07 22:26 | 53.19342 | -0.07987 | 30331 ft | 307 kts | 110° |
| 2026-05-07 22:27 | 53.18029 | -0.01203 | 30417 ft | 307 kts | 110° |
| 2026-05-07 22:27 | 53.16713 | 0.05567 | 30514 ft | 307 kts | 110° |
| 2026-05-07 22:28 | 53.15396 | 0.12326 | 30601 ft | 306 kts | 110° |
| 2026-05-07 22:28 | 53.14076 | 0.19071 | 30674 ft | 306 kts | 110° |
| 2026-05-07 22:29 | 53.12751 | 0.25820 | 30738 ft | 306 kts | 111° |
| 2026-05-07 22:29 | 53.11421 | 0.32569 | 30786 ft | 306 kts | 111° |
| 2026-05-07 22:30 | 53.10098 | 0.39262 | 30832 ft | 307 kts | 111° |
| 2026-05-07 22:30 | 53.08761 | 0.46001 | 30884 ft | 307 kts | 111° |
| 2026-05-07 22:31 | 53.07421 | 0.52732 | 30933 ft | 306 kts | 111° |
| 2026-05-07 22:31 | 53.06079 | 0.59448 | 31021 ft | 306 kts | 111° |
| 2026-05-07 22:32 | 53.04736 | 0.66151 | 31068 ft | 305 kts | 111° |
| 2026-05-07 22:32 | 53.03388 | 0.72848 | 31112 ft | 305 kts | 111° |
| 2026-05-07 22:33 | 53.02040 | 0.79531 | 31137 ft | 305 kts | 111° |
| 2026-05-07 22:33 | 53.00686 | 0.86211 | 31172 ft | 305 kts | 111° |
| 2026-05-07 22:34 | 52.99328 | 0.92901 | 31124 ft | 307 kts | 111° |
| 2026-05-07 22:34 | 52.97966 | 0.99577 | 31112 ft | 308 kts | 112° |
| 2026-05-07 22:35 | 52.96477 | 1.06238 | 31142 ft | 307 kts | 113° |
| 2026-05-07 22:35 | 52.94980 | 1.12872 | 31184 ft | 307 kts | 113° |
| 2026-05-07 22:36 | 52.93481 | 1.19496 | 31216 ft | 307 kts | 113° |
| 2026-05-07 22:36 | 52.91979 | 1.26112 | 31243 ft | 307 kts | 113° |
| 2026-05-07 22:37 | 52.90471 | 1.32735 | 31273 ft | 307 kts | 113° |
| 2026-05-07 22:37 | 52.88961 | 1.39345 | 31299 ft | 307 kts | 113° |
| 2026-05-07 22:38 | 52.87448 | 1.45949 | 31320 ft | 307 kts | 114° |
| 2026-05-07 22:38 | 52.85928 | 1.52561 | 31336 ft | 307 kts | 113° |
| 2026-05-07 22:39 | 52.84412 | 1.59138 | 31397 ft | 306 kts | 114° |
| 2026-05-07 22:39 | 52.82884 | 1.65740 | 31264 ft | 313 kts | 113° |
| 2026-05-07 22:40 | 52.81295 | 1.72589 | 31121 ft | 323 kts | 114° |
| 2026-05-07 22:40 | 52.79663 | 1.79602 | 31130 ft | 330 kts | 113° |
| 2026-05-07 22:41 | 52.77989 | 1.86770 | 31134 ft | 339 kts | 113° |
| 2026-05-07 22:41 | 52.76264 | 1.94132 | 31127 ft | 349 kts | 114° |
| 2026-05-07 22:42 | 52.74482 | 2.01708 | 31099 ft | 360 kts | 113° |
| 2026-05-07 22:42 | 52.72637 | 2.09524 | 31116 ft | 371 kts | 113° |
| 2026-05-07 22:43 | 52.70729 | 2.17582 | 31111 ft | 384 kts | 113° |
| 2026-05-07 22:43 | 52.68742 | 2.25936 | 31112 ft | 398 kts | 113° |
| 2026-05-07 22:44 | 52.67037 | 2.33084 | 31113 ft | 410 kts | 113° |
| 2026-05-07 22:44 | 52.64556 | 2.43439 | 31114 ft | 426 kts | 113° |
| 2026-05-07 22:45 | 52.62719 | 2.51071 | 31109 ft | 437 kts | 113° |
| 2026-05-07 22:45 | 52.60440 | 2.60509 | 31114 ft | 450 kts | 113° |
| 2026-05-07 22:46 | 52.58088 | 2.70207 | 31113 ft | 462 kts | 113° |
| 2026-05-07 22:46 | 52.55690 | 2.80062 | 31131 ft | 464 kts | 114° |
| 2026-05-07 22:47 | 52.52945 | 2.89624 | 31185 ft | 463 kts | 119° |
| 2026-05-07 22:47 | 52.49972 | 2.99006 | 31240 ft | 463 kts | 119° |
| 2026-05-07 22:48 | 52.46993 | 3.08373 | 31286 ft | 464 kts | 120° |
| 2026-05-07 22:48 | 52.43988 | 3.17789 | 31347 ft | 466 kts | 120° |
| 2026-05-07 22:49 | 52.40976 | 3.27187 | 31390 ft | 466 kts | 120° |
| 2026-05-07 22:49 | 52.37956 | 3.36575 | 31439 ft | 466 kts | 120° |
| 2026-05-07 22:50 | 52.34930 | 3.45946 | 31486 ft | 466 kts | 120° |
| 2026-05-07 22:50 | 52.31905 | 3.55278 | 31521 ft | 463 kts | 120° |
| 2026-05-07 22:51 | 52.28898 | 3.64519 | 31552 ft | 463 kts | 120° |
| 2026-05-07 22:51 | 52.25866 | 3.73803 | 31604 ft | 463 kts | 120° |
| 2026-05-07 22:52 | 52.22827 | 3.83075 | 31640 ft | 463 kts | 120° |
| 2026-05-07 22:52 | 52.19774 | 3.92351 | 31649 ft | 466 kts | 120° |
| 2026-05-07 22:53 | 52.16705 | 4.01645 | 31689 ft | 464 kts | 120° |
| 2026-05-07 22:53 | 52.13636 | 4.10899 | 31713 ft | 464 kts | 120° |
| 2026-05-07 22:54 | 52.10564 | 4.20132 | 31743 ft | 464 kts | 120° |
| 2026-05-07 22:54 | 52.07484 | 4.29354 | 31760 ft | 464 kts | 120° |
| 2026-05-07 22:55 | 52.04416 | 4.38504 | 31783 ft | 464 kts | 120° |
| 2026-05-07 22:55 | 52.01325 | 4.47690 | 31799 ft | 464 kts | 121° |
| 2026-05-07 22:56 | 51.98222 | 4.56879 | 31814 ft | 464 kts | 121° |
| 2026-05-07 22:56 | 51.95112 | 4.66053 | 31829 ft | 464 kts | 121° |
| 2026-05-07 22:57 | 51.91984 | 4.75246 | 31843 ft | 467 kts | 121° |
| 2026-05-07 22:57 | 51.88839 | 4.84457 | 31854 ft | 467 kts | 121° |
| 2026-05-07 22:58 | 51.85692 | 4.93638 | 31866 ft | 467 kts | 121° |
| 2026-05-07 22:58 | 51.82553 | 5.02761 | 31883 ft | 467 kts | 121° |
| 2026-05-07 22:59 | 51.79388 | 5.11928 | 31902 ft | 467 kts | 121° |
| 2026-05-07 22:59 | 51.76209 | 5.21102 | 31919 ft | 467 kts | 121° |
| 2026-05-07 23:00 | 51.73033 | 5.30235 | 31932 ft | 467 kts | 121° |
| 2026-05-07 23:00 | 51.69847 | 5.39363 | 31946 ft | 465 kts | 121° |
| 2026-05-07 23:01 | 51.66667 | 5.48441 | 31945 ft | 467 kts | 121° |
| 2026-05-07 23:01 | 51.63461 | 5.57557 | 31964 ft | 468 kts | 121° |
| 2026-05-07 23:02 | 51.60312 | 5.66484 | 31972 ft | 467 kts | 121° |
| 2026-05-07 23:02 | 51.57095 | 5.75569 | 31987 ft | 467 kts | 121° |
| 2026-05-07 23:03 | 51.53895 | 5.84573 | 31992 ft | 466 kts | 121° |
| 2026-05-07 23:03 | 51.50676 | 5.93599 | 32002 ft | 466 kts | 121° |
| 2026-05-07 23:04 | 51.47446 | 6.02622 | 32012 ft | 466 kts | 121° |
| 2026-05-07 23:04 | 51.44210 | 6.11631 | 32025 ft | 466 kts | 122° |
| 2026-05-07 23:05 | 51.40967 | 6.20626 | 32028 ft | 466 kts | 122° |
| 2026-05-07 23:05 | 51.37714 | 6.29621 | 32044 ft | 467 kts | 122° |
| 2026-05-07 23:06 | 51.34452 | 6.38605 | 32055 ft | 467 kts | 122° |
| 2026-05-07 23:06 | 51.31187 | 6.47568 | 32060 ft | 466 kts | 122° |
| 2026-05-07 23:07 | 51.27935 | 6.56462 | 32070 ft | 466 kts | 122° |
| 2026-05-07 23:07 | 51.24656 | 6.65400 | 32079 ft | 466 kts | 122° |
| 2026-05-07 23:08 | 51.21371 | 6.74322 | 32093 ft | 465 kts | 122° |
| 2026-05-07 23:08 | 51.18088 | 6.83210 | 32102 ft | 465 kts | 122° |
| 2026-05-07 23:09 | 51.14798 | 6.92084 | 32112 ft | 465 kts | 122° |
| 2026-05-07 23:09 | 51.11519 | 7.00899 | 32106 ft | 466 kts | 122° |
| 2026-05-07 23:10 | 51.08211 | 7.09760 | 32129 ft | 466 kts | 122° |
| 2026-05-07 23:10 | 51.04873 | 7.18671 | 32142 ft | 465 kts | 122° |
| 2026-05-07 23:11 | 51.01581 | 7.27430 | 32151 ft | 465 kts | 122° |
| 2026-05-07 23:11 | 50.98263 | 7.36231 | 32160 ft | 465 kts | 122° |
| 2026-05-07 23:12 | 50.94936 | 7.45034 | 32187 ft | 465 kts | 122° |
| 2026-05-07 23:12 | 50.91602 | 7.53823 | 32208 ft | 465 kts | 123° |
| 2026-05-07 23:13 | 50.88268 | 7.62584 | 32218 ft | 464 kts | 123° |
| 2026-05-07 23:13 | 50.84932 | 7.71322 | 32223 ft | 464 kts | 123° |
| 2026-05-07 23:13 | 50.83102 | 7.75491 | 32201 ft | 460 kts | 135° |
| 2026-05-07 23:14 | 50.80764 | 7.78914 | 32168 ft | 457 kts | 140° |
| 2026-05-07 23:14 | 50.76101 | 7.85823 | 32177 ft | 460 kts | 139° |
| 2026-05-07 23:15 | 50.71442 | 7.92743 | 32190 ft | 460 kts | 139° |
| 2026-05-07 23:15 | 50.66780 | 7.99650 | 32207 ft | 459 kts | 139° |
| 2026-05-07 23:16 | 50.62122 | 8.06530 | 32243 ft | 459 kts | 139° |
| 2026-05-07 23:16 | 50.57829 | 8.14041 | 32239 ft | 467 kts | 130° |
| 2026-05-07 23:17 | 50.53729 | 8.22136 | 32346 ft | 478 kts | 130° |
| 2026-05-07 23:17 | 50.49559 | 8.30314 | 32494 ft | 480 kts | 130° |
| 2026-05-07 23:18 | 50.45379 | 8.38484 | 32630 ft | 480 kts | 130° |
| 2026-05-07 23:18 | 50.41199 | 8.46628 | 32764 ft | 480 kts | 130° |
| 2026-05-07 23:19 | 50.36930 | 8.54657 | 32865 ft | 478 kts | 135° |
| 2026-05-07 23:19 | 50.32399 | 8.62277 | 32957 ft | 478 kts | 135° |
| 2026-05-07 23:20 | 50.27854 | 8.69882 | 33053 ft | 479 kts | 135° |
| 2026-05-07 23:20 | 50.23298 | 8.77483 | 33134 ft | 479 kts | 135° |
| 2026-05-07 23:21 | 50.18733 | 8.85074 | 33219 ft | 479 kts | 135° |
| 2026-05-07 23:21 | 50.14199 | 8.92591 | 33289 ft | 479 kts | 135° |
| 2026-05-07 23:22 | 50.09630 | 9.00145 | 33355 ft | 479 kts | 135° |
| 2026-05-07 23:22 | 50.05056 | 9.07684 | 33406 ft | 479 kts | 135° |
| 2026-05-07 23:23 | 50.00475 | 9.15213 | 33475 ft | 479 kts | 135° |
| 2026-05-07 23:23 | 49.95879 | 9.22743 | 33525 ft | 480 kts | 135° |
| 2026-05-07 23:24 | 49.91280 | 9.30257 | 33579 ft | 480 kts | 136° |
| 2026-05-07 23:24 | 49.86669 | 9.37767 | 33622 ft | 480 kts | 136° |
| 2026-05-07 23:25 | 49.82062 | 9.45249 | 33670 ft | 480 kts | 136° |
| 2026-05-07 23:25 | 49.77448 | 9.52721 | 33698 ft | 480 kts | 136° |
| 2026-05-07 23:26 | 49.72822 | 9.60189 | 33735 ft | 481 kts | 136° |
| 2026-05-07 23:26 | 49.68186 | 9.67651 | 33765 ft | 481 kts | 136° |
| 2026-05-07 23:27 | 49.61261 | 9.78759 | 33811 ft | 481 kts | 136° |
| 2026-05-07 23:27 | 49.56619 | 9.86177 | 33848 ft | 481 kts | 136° |
| 2026-05-07 23:28 | 49.51963 | 9.93594 | 33847 ft | 483 kts | 136° |
| 2026-05-07 23:28 | 49.47277 | 10.01039 | 33870 ft | 484 kts | 136° |
| 2026-05-07 23:29 | 49.42590 | 10.08463 | 33887 ft | 484 kts | 137° |
| 2026-05-07 23:29 | 49.37899 | 10.15872 | 33902 ft | 484 kts | 137° |
| 2026-05-07 23:30 | 49.33200 | 10.23273 | 33907 ft | 484 kts | 137° |
| 2026-05-07 23:30 | 49.28492 | 10.30671 | 33908 ft | 485 kts | 137° |
| 2026-05-07 23:31 | 49.23728 | 10.38009 | 33928 ft | 484 kts | 143° |
| 2026-05-07 23:31 | 49.20985 | 10.40788 | 33904 ft | 477 kts | 155° |
| 2026-05-07 23:31 | 49.19036 | 10.42482 | 33904 ft | 479 kts | 153° |
| 2026-05-07 23:32 | 49.12377 | 10.48550 | 33936 ft | 480 kts | 153° |
| 2026-05-07 23:32 | 49.06643 | 10.53758 | 33957 ft | 480 kts | 153° |
| 2026-05-07 23:33 | 49.01835 | 10.58114 | 33941 ft | 480 kts | 153° |
| 2026-05-07 23:33 | 48.96127 | 10.63274 | 33966 ft | 481 kts | 153° |
| 2026-05-07 23:34 | 48.90358 | 10.68473 | 33982 ft | 482 kts | 153° |
| 2026-05-07 23:34 | 48.84590 | 10.73658 | 34001 ft | 482 kts | 153° |
| 2026-05-07 23:35 | 48.79240 | 10.79760 | 33924 ft | 489 kts | 133° |
| 2026-05-07 23:35 | 48.74721 | 10.87526 | 33929 ft | 491 kts | 135° |
| 2026-05-07 23:36 | 48.70136 | 10.95201 | 33948 ft | 491 kts | 135° |
| 2026-05-07 23:36 | 48.65534 | 11.02889 | 33961 ft | 493 kts | 135° |
| 2026-05-07 23:37 | 48.60927 | 11.10561 | 33983 ft | 493 kts | 135° |
| 2026-05-07 23:37 | 48.56324 | 11.18217 | 33998 ft | 493 kts | 135° |
| 2026-05-07 23:38 | 48.51734 | 11.25890 | 33993 ft | 493 kts | 135° |
| 2026-05-07 23:38 | 48.47167 | 11.33529 | 34001 ft | 494 kts | 135° |
| 2026-05-07 23:39 | 48.42595 | 11.41168 | 34027 ft | 494 kts | 135° |
| 2026-05-07 23:39 | 48.37989 | 11.48854 | 34036 ft | 494 kts | 135° |
| 2026-05-07 23:40 | 48.33381 | 11.56537 | 34039 ft | 494 kts | 135° |
| 2026-05-07 23:40 | 48.28778 | 11.64203 | 34039 ft | 495 kts | 135° |
| 2026-05-07 23:41 | 48.24127 | 11.71824 | 34086 ft | 495 kts | 136° |
| 2026-05-07 23:41 | 48.19419 | 11.79395 | 34082 ft | 495 kts | 136° |
| 2026-05-07 23:42 | 48.14729 | 11.86944 | 34083 ft | 495 kts | 136° |
| 2026-05-07 23:42 | 48.10030 | 11.94488 | 34089 ft | 495 kts | 136° |
| 2026-05-07 23:43 | 48.05331 | 12.02008 | 34090 ft | 496 kts | 136° |
| 2026-05-07 23:43 | 48.00649 | 12.09482 | 34079 ft | 496 kts | 136° |
| 2026-05-07 23:44 | 47.95928 | 12.16995 | 34095 ft | 495 kts | 136° |
| 2026-05-07 23:44 | 47.91207 | 12.24488 | 34093 ft | 495 kts | 136° |
| 2026-05-07 23:45 | 47.86486 | 12.31959 | 34098 ft | 495 kts | 137° |
| 2026-05-07 23:45 | 47.81757 | 12.39421 | 34099 ft | 495 kts | 137° |
| 2026-05-07 23:46 | 47.77026 | 12.46866 | 34098 ft | 495 kts | 137° |
| 2026-05-07 23:46 | 47.72291 | 12.54295 | 34205 ft | 496 kts | 137° |
| 2026-05-07 23:47 | 47.69918 | 12.58011 | 34104 ft | 495 kts | 137° |
| 2026-05-07 23:47 | 47.67556 | 12.61704 | 34085 ft | 494 kts | 137° |
| 2026-05-07 23:47 | 47.62803 | 12.69118 | 34099 ft | 497 kts | 137° |
| 2026-05-07 23:48 | 47.58032 | 12.76541 | 34101 ft | 498 kts | 137° |
| 2026-05-07 23:48 | 47.53253 | 12.83956 | 34104 ft | 497 kts | 137° |
| 2026-05-07 23:49 | 47.48477 | 12.91344 | 34063 ft | 497 kts | 137° |
| 2026-05-07 23:49 | 47.43674 | 12.98754 | 34101 ft | 499 kts | 137° |
| 2026-05-07 23:50 | 47.38866 | 13.06151 | 34108 ft | 500 kts | 138° |
| 2026-05-07 23:50 | 47.34045 | 13.13546 | 34115 ft | 500 kts | 138° |
| 2026-05-07 23:51 | 47.29253 | 13.20877 | 34096 ft | 500 kts | 138° |
| 2026-05-07 23:51 | 47.24427 | 13.28238 | 34099 ft | 500 kts | 138° |
| 2026-05-07 23:52 | 47.19590 | 13.35596 | 34121 ft | 500 kts | 138° |
| 2026-05-07 23:52 | 47.14751 | 13.42937 | 34100 ft | 500 kts | 139° |
| 2026-05-07 23:53 | 47.09904 | 13.50269 | 34106 ft | 500 kts | 139° |
| 2026-05-07 23:53 | 47.05052 | 13.57590 | 34101 ft | 500 kts | 139° |
| 2026-05-07 23:54 | 47.00188 | 13.64905 | 34108 ft | 500 kts | 139° |
| 2026-05-07 23:54 | 46.95342 | 13.72176 | 34085 ft | 498 kts | 139° |
| 2026-05-07 23:55 | 46.90526 | 13.79380 | 34108 ft | 498 kts | 139° |
| 2026-05-07 23:55 | 46.85692 | 13.86592 | 34100 ft | 497 kts | 139° |
| 2026-05-07 23:56 | 46.80845 | 13.93804 | 34094 ft | 497 kts | 139° |
| 2026-05-07 23:56 | 46.75995 | 14.01001 | 34077 ft | 496 kts | 139° |
| 2026-05-07 23:57 | 46.71148 | 14.08173 | 34094 ft | 496 kts | 139° |
| 2026-05-07 23:57 | 46.66310 | 14.15313 | 34093 ft | 495 kts | 139° |
| 2026-05-07 23:58 | 46.61471 | 14.22435 | 34104 ft | 494 kts | 139° |
| 2026-05-07 23:58 | 46.56635 | 14.29532 | 34083 ft | 494 kts | 140° |
| 2026-05-07 23:59 | 46.51787 | 14.36630 | 34087 ft | 494 kts | 140° |
| 2026-05-07 23:59 | 46.46936 | 14.43712 | 34098 ft | 494 kts | 140° |
| 2026-05-08 00:00 | 46.42087 | 14.50772 | 34094 ft | 494 kts | 140° |
| 2026-05-08 00:00 | 46.37257 | 14.57786 | 34064 ft | 494 kts | 140° |
| 2026-05-08 00:01 | 46.32400 | 14.64821 | 34088 ft | 494 kts | 141° |
| 2026-05-08 00:01 | 46.27537 | 14.71846 | 34079 ft | 494 kts | 141° |
| 2026-05-08 00:02 | 46.22674 | 14.78850 | 34084 ft | 494 kts | 141° |
| 2026-05-08 00:02 | 46.17796 | 14.85858 | 34081 ft | 496 kts | 141° |
| 2026-05-08 00:03 | 46.12901 | 14.92874 | 34070 ft | 495 kts | 141° |
| 2026-05-08 00:03 | 46.07996 | 14.99884 | 34084 ft | 496 kts | 141° |
| 2026-05-08 00:04 | 46.03099 | 15.06864 | 34086 ft | 496 kts | 141° |
| 2026-05-08 00:04 | 45.98195 | 15.13835 | 34073 ft | 495 kts | 141° |
| 2026-05-08 00:05 | 45.93285 | 15.20797 | 34045 ft | 497 kts | 142° |
| 2026-05-08 00:05 | 45.88349 | 15.27778 | 34079 ft | 499 kts | 142° |
| 2026-05-08 00:06 | 45.83436 | 15.34707 | 34076 ft | 498 kts | 142° |
| 2026-05-08 00:06 | 45.78485 | 15.41672 | 34064 ft | 498 kts | 142° |
| 2026-05-08 00:07 | 45.73537 | 15.48614 | 34072 ft | 498 kts | 142° |
| 2026-05-08 00:07 | 45.68580 | 15.55551 | 34060 ft | 498 kts | 142° |
| 2026-05-08 00:08 | 45.63621 | 15.62472 | 34081 ft | 498 kts | 142° |
| 2026-05-08 00:08 | 45.58654 | 15.69387 | 34072 ft | 498 kts | 142° |
| 2026-05-08 00:09 | 45.53686 | 15.76285 | 34074 ft | 498 kts | 142° |
| 2026-05-08 00:09 | 45.48709 | 15.83177 | 34073 ft | 499 kts | 142° |
| 2026-05-08 00:10 | 45.43717 | 15.90072 | 34052 ft | 500 kts | 143° |
| 2026-05-08 00:10 | 45.38704 | 15.96979 | 34070 ft | 502 kts | 143° |
| 2026-05-08 00:11 | 45.33716 | 16.03833 | 34067 ft | 501 kts | 143° |
| 2026-05-08 00:11 | 45.28693 | 16.10717 | 34068 ft | 502 kts | 143° |
| 2026-05-08 00:12 | 45.23670 | 16.17583 | 34070 ft | 502 kts | 143° |
| 2026-05-08 00:12 | 45.18606 | 16.24488 | 34060 ft | 507 kts | 143° |
| 2026-05-08 00:13 | 45.13518 | 16.31408 | 34076 ft | 507 kts | 143° |
| 2026-05-08 00:13 | 45.08423 | 16.38318 | 34070 ft | 507 kts | 143° |
| 2026-05-08 00:14 | 45.03325 | 16.45215 | 34073 ft | 507 kts | 143° |
| 2026-05-08 00:14 | 44.98226 | 16.52094 | 34079 ft | 506 kts | 143° |
| 2026-05-08 00:15 | 44.93123 | 16.58963 | 34069 ft | 508 kts | 143° |
| 2026-05-08 00:15 | 44.88037 | 16.65791 | 34074 ft | 507 kts | 143° |
| 2026-05-08 00:16 | 44.82916 | 16.72647 | 34083 ft | 507 kts | 143° |
| 2026-05-08 00:16 | 44.77792 | 16.79490 | 34081 ft | 507 kts | 143° |
| 2026-05-08 00:17 | 44.72671 | 16.86312 | 34082 ft | 507 kts | 143° |
| 2026-05-08 00:17 | 44.67544 | 16.93124 | 34071 ft | 506 kts | 143° |
| 2026-05-08 00:18 | 44.62424 | 16.99909 | 34090 ft | 506 kts | 143° |
| 2026-05-08 00:18 | 44.57305 | 17.06676 | 34102 ft | 506 kts | 143° |
| 2026-05-08 00:19 | 44.52179 | 17.13435 | 34106 ft | 506 kts | 143° |
| 2026-05-08 00:19 | 44.47072 | 17.20152 | 34102 ft | 501 kts | 143° |
| 2026-05-08 00:20 | 44.42037 | 17.26758 | 34127 ft | 498 kts | 143° |
| 2026-05-08 00:20 | 44.36978 | 17.33377 | 34099 ft | 497 kts | 143° |
| 2026-05-08 00:21 | 44.32727 | 17.38927 | 34114 ft | 501 kts | 143° |
| 2026-05-08 00:21 | 44.27632 | 17.45566 | 34115 ft | 497 kts | 143° |
| 2026-05-08 00:22 | 44.22625 | 17.52072 | 34121 ft | 496 kts | 143° |
| 2026-05-08 00:22 | 44.17579 | 17.58613 | 34108 ft | 494 kts | 143° |
| 2026-05-08 00:23 | 44.12546 | 17.65121 | 34107 ft | 494 kts | 143° |
| 2026-05-08 00:23 | 44.07514 | 17.71612 | 34066 ft | 492 kts | 143° |
| 2026-05-08 00:24 | 44.02491 | 17.78076 | 34153 ft | 492 kts | 143° |
| 2026-05-08 00:24 | 43.99979 | 17.81304 | 34049 ft | 492 kts | 143° |
| 2026-05-08 00:24 | 43.97468 | 17.84524 | 34118 ft | 491 kts | 143° |
| 2026-05-08 00:25 | 43.92464 | 17.90933 | 34089 ft | 486 kts | 143° |
| 2026-05-08 00:25 | 43.87492 | 17.97285 | 34108 ft | 485 kts | 143° |
| 2026-05-08 00:26 | 43.82528 | 18.03613 | 34113 ft | 485 kts | 143° |
| 2026-05-08 00:26 | 43.77576 | 18.09910 | 34097 ft | 488 kts | 143° |
| 2026-05-08 00:27 | 43.72562 | 18.16270 | 34093 ft | 489 kts | 143° |
| 2026-05-08 00:27 | 43.67562 | 18.22598 | 34095 ft | 487 kts | 143° |
| 2026-05-08 00:28 | 43.62562 | 18.28910 | 34102 ft | 487 kts | 143° |
| 2026-05-08 00:28 | 43.57563 | 18.35208 | 34115 ft | 487 kts | 143° |
| 2026-05-08 00:29 | 43.52558 | 18.41498 | 34116 ft | 487 kts | 143° |
| 2026-05-08 00:29 | 43.47547 | 18.47780 | 34099 ft | 488 kts | 143° |
| 2026-05-08 00:30 | 43.42519 | 18.54069 | 34118 ft | 488 kts | 143° |
| 2026-05-08 00:30 | 43.37488 | 18.60347 | 34116 ft | 488 kts | 143° |
| 2026-05-08 00:31 | 43.32446 | 18.66624 | 34109 ft | 488 kts | 143° |
| 2026-05-08 00:31 | 43.27414 | 18.72874 | 34132 ft | 488 kts | 143° |
| 2026-05-08 00:32 | 43.22376 | 18.79116 | 34115 ft | 488 kts | 143° |
| 2026-05-08 00:32 | 43.17350 | 18.85328 | 34109 ft | 489 kts | 143° |
| 2026-05-08 00:33 | 43.12285 | 18.91577 | 34108 ft | 489 kts | 143° |
| 2026-05-08 00:33 | 43.07227 | 18.97800 | 34108 ft | 489 kts | 143° |
| 2026-05-08 00:34 | 43.02156 | 19.04025 | 34121 ft | 489 kts | 143° |
| 2026-05-08 00:34 | 42.97100 | 19.10219 | 34098 ft | 484 kts | 144° |
| 2026-05-08 00:35 | 42.92103 | 19.16326 | 34095 ft | 482 kts | 143° |
| 2026-05-08 00:35 | 42.87092 | 19.22435 | 34105 ft | 483 kts | 143° |
| 2026-05-08 00:36 | 42.82088 | 19.28522 | 34098 ft | 482 kts | 143° |
| 2026-05-08 00:36 | 42.77073 | 19.34610 | 34096 ft | 482 kts | 143° |
| 2026-05-08 00:37 | 42.72051 | 19.40690 | 34094 ft | 485 kts | 143° |
| 2026-05-08 00:38 | 42.64464 | 19.49853 | 34090 ft | 488 kts | 144° |
| 2026-05-08 00:38 | 42.59377 | 19.55978 | 34083 ft | 488 kts | 144° |
| 2026-05-08 00:39 | 42.54328 | 19.62044 | 34091 ft | 488 kts | 144° |
| 2026-05-08 00:39 | 42.49231 | 19.68155 | 34065 ft | 490 kts | 145° |
| 2026-05-08 00:40 | 42.44085 | 19.74308 | 34081 ft | 495 kts | 145° |
| 2026-05-08 00:40 | 42.38929 | 19.80462 | 34051 ft | 494 kts | 145° |
| 2026-05-08 00:41 | 42.33743 | 19.86634 | 34074 ft | 499 kts | 145° |
| 2026-05-08 00:41 | 42.28500 | 19.92862 | 34099 ft | 503 kts | 145° |
| 2026-05-08 00:42 | 42.23233 | 19.99104 | 34061 ft | 505 kts | 146° |
| 2026-05-08 00:42 | 42.17944 | 20.05358 | 34087 ft | 506 kts | 146° |
| 2026-05-08 00:43 | 42.12644 | 20.11610 | 34096 ft | 506 kts | 146° |
| 2026-05-08 00:43 | 42.07334 | 20.17858 | 34087 ft | 508 kts | 146° |
| 2026-05-08 00:44 | 42.02044 | 20.24070 | 34096 ft | 508 kts | 146° |
| 2026-05-08 00:44 | 41.96716 | 20.30312 | 34091 ft | 507 kts | 146° |
| 2026-05-08 00:45 | 41.91402 | 20.36522 | 34109 ft | 506 kts | 146° |
| 2026-05-08 00:45 | 41.86087 | 20.42720 | 34105 ft | 506 kts | 146° |
| 2026-05-08 00:46 | 41.80755 | 20.48923 | 34094 ft | 507 kts | 146° |
| 2026-05-08 00:46 | 41.75764 | 20.55666 | 34095 ft | 521 kts | 128° |
| 2026-05-08 00:47 | 41.71969 | 20.63978 | 34100 ft | 523 kts | 127° |
| 2026-05-08 00:47 | 41.68103 | 20.72246 | 34115 ft | 523 kts | 127° |
| 2026-05-08 00:48 | 41.64245 | 20.80495 | 34115 ft | 523 kts | 127° |
| 2026-05-08 00:48 | 41.60401 | 20.88688 | 34108 ft | 525 kts | 127° |
| 2026-05-08 00:49 | 41.56517 | 20.96946 | 34130 ft | 524 kts | 127° |
| 2026-05-08 00:49 | 41.52631 | 21.05184 | 34130 ft | 524 kts | 127° |
| 2026-05-08 00:50 | 41.48740 | 21.13410 | 34112 ft | 524 kts | 127° |
| 2026-05-08 00:50 | 41.44844 | 21.21628 | 34123 ft | 526 kts | 127° |
| 2026-05-08 00:51 | 41.40952 | 21.29810 | 34112 ft | 526 kts | 127° |
| 2026-05-08 00:51 | 41.37005 | 21.38089 | 34126 ft | 532 kts | 127° |
| 2026-05-08 00:52 | 41.32948 | 21.46307 | 34125 ft | 529 kts | 131° |
| 2026-05-08 00:52 | 41.28586 | 21.54202 | 34129 ft | 529 kts | 131° |
| 2026-05-08 00:53 | 41.24210 | 21.62076 | 34120 ft | 529 kts | 131° |
| 2026-05-08 00:53 | 41.19841 | 21.69920 | 34135 ft | 529 kts | 132° |
| 2026-05-08 00:54 | 41.15460 | 21.77764 | 34129 ft | 529 kts | 132° |
| 2026-05-08 00:54 | 41.11060 | 21.85622 | 34127 ft | 532 kts | 132° |
| 2026-05-08 00:55 | 41.06633 | 21.93487 | 34111 ft | 533 kts | 133° |
| 2026-05-08 00:55 | 41.02200 | 22.01292 | 34122 ft | 533 kts | 133° |
| 2026-05-08 00:56 | 40.97733 | 22.09136 | 34119 ft | 533 kts | 133° |
| 2026-05-08 00:56 | 40.93260 | 22.16970 | 34121 ft | 535 kts | 133° |
| 2026-05-08 00:57 | 40.88766 | 22.24821 | 34119 ft | 535 kts | 133° |
| 2026-05-08 00:57 | 40.84268 | 22.32658 | 34105 ft | 535 kts | 133° |
| 2026-05-08 00:58 | 40.79761 | 22.40493 | 34111 ft | 535 kts | 133° |
| 2026-05-08 00:58 | 40.75276 | 22.48269 | 34084 ft | 537 kts | 133° |
| 2026-05-08 00:59 | 40.70729 | 22.56133 | 34105 ft | 539 kts | 133° |
| 2026-05-08 00:59 | 40.66182 | 22.63979 | 34103 ft | 539 kts | 133° |
| 2026-05-08 01:00 | 40.61626 | 22.71820 | 34098 ft | 539 kts | 133° |
| 2026-05-08 01:00 | 40.57060 | 22.79658 | 34091 ft | 540 kts | 133° |
| 2026-05-08 01:01 | 40.52495 | 22.87474 | 34108 ft | 542 kts | 133° |
| 2026-05-08 01:01 | 40.47902 | 22.95319 | 34104 ft | 541 kts | 133° |
| 2026-05-08 01:02 | 40.43030 | 23.02764 | 34118 ft | 535 kts | 140° |
| 2026-05-08 01:02 | 40.37901 | 23.09866 | 34100 ft | 535 kts | 140° |
| 2026-05-08 01:03 | 40.32765 | 23.16957 | 34103 ft | 538 kts | 139° |
| 2026-05-08 01:03 | 40.27610 | 23.24056 | 34091 ft | 537 kts | 139° |
| 2026-05-08 01:04 | 40.22451 | 23.31144 | 34097 ft | 537 kts | 139° |
| 2026-05-08 01:04 | 40.17296 | 23.38210 | 34059 ft | 537 kts | 139° |
| 2026-05-08 01:05 | 40.12119 | 23.45291 | 34085 ft | 539 kts | 139° |
| 2026-05-08 01:05 | 40.06935 | 23.52363 | 34086 ft | 539 kts | 139° |
| 2026-05-08 01:06 | 40.01744 | 23.59431 | 34086 ft | 539 kts | 139° |
| 2026-05-08 01:06 | 39.96585 | 23.66435 | 34090 ft | 539 kts | 139° |
| 2026-05-08 01:07 | 39.91387 | 23.73476 | 34089 ft | 539 kts | 139° |
| 2026-05-08 01:07 | 39.86170 | 23.80526 | 34077 ft | 543 kts | 139° |
| 2026-05-08 01:08 | 39.80919 | 23.87607 | 34077 ft | 544 kts | 139° |
| 2026-05-08 01:08 | 39.75661 | 23.94681 | 34084 ft | 543 kts | 139° |
| 2026-05-08 01:09 | 39.71297 | 24.00540 | 34095 ft | 543 kts | 139° |
| 2026-05-08 01:09 | 39.66029 | 24.07597 | 34084 ft | 543 kts | 139° |
| 2026-05-08 01:10 | 39.59894 | 24.15793 | 34070 ft | 545 kts | 139° |
| 2026-05-08 01:10 | 39.55461 | 24.21703 | 34092 ft | 547 kts | 139° |
| 2026-05-08 01:11 | 39.50144 | 24.28775 | 34082 ft | 547 kts | 140° |
| 2026-05-08 01:11 | 39.44832 | 24.35825 | 34097 ft | 547 kts | 140° |
| 2026-05-08 01:12 | 39.39512 | 24.42871 | 34083 ft | 549 kts | 139° |
| 2026-05-08 01:12 | 39.34206 | 24.49889 | 34083 ft | 549 kts | 139° |
| 2026-05-08 01:13 | 39.28893 | 24.56986 | 34073 ft | 550 kts | 139° |
| 2026-05-08 01:13 | 39.23566 | 24.64100 | 34082 ft | 550 kts | 139° |
| 2026-05-08 01:14 | 39.18244 | 24.71190 | 34080 ft | 550 kts | 139° |
| 2026-05-08 01:14 | 39.12914 | 24.78275 | 34087 ft | 550 kts | 139° |
| 2026-05-08 01:15 | 39.07549 | 24.85308 | 34085 ft | 549 kts | 140° |
| 2026-05-08 01:15 | 39.02201 | 24.92249 | 34092 ft | 549 kts | 140° |
| 2026-05-08 01:16 | 38.96811 | 24.99228 | 34092 ft | 549 kts | 139° |
| 2026-05-08 01:16 | 38.91418 | 25.06196 | 34093 ft | 551 kts | 139° |
| 2026-05-08 01:17 | 38.86007 | 25.13171 | 34092 ft | 551 kts | 139° |
| 2026-05-08 01:17 | 38.80589 | 25.20138 | 34097 ft | 551 kts | 139° |
| 2026-05-08 01:18 | 38.75167 | 25.27095 | 34099 ft | 551 kts | 139° |
| 2026-05-08 01:18 | 38.69737 | 25.34047 | 34088 ft | 551 kts | 139° |
| 2026-05-08 01:19 | 38.64295 | 25.40997 | 34109 ft | 553 kts | 139° |
| 2026-05-08 01:19 | 38.58842 | 25.47946 | 34108 ft | 553 kts | 139° |
| 2026-05-08 01:20 | 38.53421 | 25.54838 | 34111 ft | 553 kts | 139° |
| 2026-05-08 01:20 | 38.47961 | 25.61766 | 34110 ft | 553 kts | 139° |
| 2026-05-08 01:21 | 38.42489 | 25.68692 | 34113 ft | 555 kts | 139° |
| 2026-05-08 01:21 | 38.37009 | 25.75618 | 34112 ft | 555 kts | 139° |
| 2026-05-08 01:22 | 38.31536 | 25.82542 | 34117 ft | 554 kts | 139° |
| 2026-05-08 01:22 | 38.25977 | 25.89312 | 34108 ft | 548 kts | 148° |
| 2026-05-08 01:22 | 38.22743 | 25.91745 | 34115 ft | 532 kts | 165° |
| 2026-05-08 01:23 | 38.19283 | 25.93287 | 34130 ft | 528 kts | 168° |
| 2026-05-08 01:23 | 38.12373 | 25.96419 | 34106 ft | 532 kts | 167° |
| 2026-05-08 01:24 | 38.05371 | 25.99606 | 34125 ft | 536 kts | 167° |
| 2026-05-08 01:24 | 37.98352 | 26.02794 | 34124 ft | 535 kts | 167° |
| 2026-05-08 01:25 | 37.91336 | 26.05976 | 34127 ft | 536 kts | 167° |
| 2026-05-08 01:25 | 37.84316 | 26.09151 | 34130 ft | 536 kts | 167° |
| 2026-05-08 01:26 | 37.77287 | 26.12326 | 34128 ft | 536 kts | 167° |
| 2026-05-08 01:26 | 37.70253 | 26.15494 | 34124 ft | 536 kts | 167° |
| 2026-05-08 01:27 | 37.63227 | 26.18653 | 34136 ft | 536 kts | 167° |
| 2026-05-08 01:27 | 37.56246 | 26.21784 | 34119 ft | 536 kts | 167° |
| 2026-05-08 01:28 | 37.49214 | 26.24933 | 34129 ft | 536 kts | 167° |
| 2026-05-08 01:28 | 37.42175 | 26.28079 | 34132 ft | 539 kts | 167° |
| 2026-05-08 01:29 | 37.35079 | 26.31244 | 34129 ft | 541 kts | 167° |
| 2026-05-08 01:29 | 37.27989 | 26.34399 | 34132 ft | 541 kts | 167° |
| 2026-05-08 01:30 | 37.20900 | 26.37548 | 34131 ft | 541 kts | 167° |
| 2026-05-08 01:30 | 37.13808 | 26.40695 | 34125 ft | 541 kts | 167° |
| 2026-05-08 01:31 | 37.06704 | 26.43843 | 34132 ft | 541 kts | 167° |
| 2026-05-08 01:31 | 36.99614 | 26.46977 | 34132 ft | 540 kts | 167° |
| 2026-05-08 01:32 | 36.92619 | 26.50325 | 34096 ft | 548 kts | 155° |
| 2026-05-08 01:32 | 36.89485 | 26.53067 | 34080 ft | 556 kts | 140° |
| 2026-05-08 01:32 | 36.86904 | 26.56681 | 34019 ft | 560 kts | 124° |
| 2026-05-08 01:32 | 36.85024 | 26.60908 | 33598 ft | 553 kts | 109° |
| 2026-05-08 01:33 | 36.83844 | 26.65427 | 32959 ft | 545 kts | 104° |
| 2026-05-08 01:33 | 36.82544 | 26.69877 | 32221 ft | 545 kts | 109° |
| 2026-05-08 01:33 | 36.81117 | 26.74263 | 31436 ft | 545 kts | 110° |
| 2026-05-08 01:33 | 36.79654 | 26.78622 | 30662 ft | 545 kts | 111° |
| 2026-05-08 01:34 | 36.78179 | 26.82939 | 29828 ft | 535 kts | 111° |
| 2026-05-08 01:34 | 36.76723 | 26.87155 | 28982 ft | 523 kts | 111° |
| 2026-05-08 01:34 | 36.75297 | 26.91277 | 28159 ft | 512 kts | 111° |
| 2026-05-08 01:34 | 36.73898 | 26.95318 | 27373 ft | 502 kts | 111° |
| 2026-05-08 01:35 | 36.72530 | 26.99262 | 26694 ft | 489 kts | 111° |
| 2026-05-08 01:35 | 36.71194 | 27.03110 | 26041 ft | 478 kts | 112° |
| 2026-05-08 01:35 | 36.69884 | 27.06878 | 25443 ft | 471 kts | 112° |
| 2026-05-08 01:35 | 36.68582 | 27.10619 | 24883 ft | 470 kts | 112° |
| 2026-05-08 01:36 | 36.67302 | 27.14287 | 24402 ft | 466 kts | 112° |
| 2026-05-08 01:36 | 36.66015 | 27.17971 | 23916 ft | 463 kts | 113° |
| 2026-05-08 01:36 | 36.64735 | 27.21628 | 23380 ft | 459 kts | 113° |
| 2026-05-08 01:36 | 36.63467 | 27.25250 | 22812 ft | 455 kts | 113° |
| 2026-05-08 01:37 | 36.62205 | 27.28847 | 22256 ft | 451 kts | 113° |
| 2026-05-08 01:37 | 36.60954 | 27.32409 | 21739 ft | 447 kts | 113° |
| 2026-05-08 01:37 | 36.59712 | 27.35943 | 21228 ft | 443 kts | 113° |
| 2026-05-08 01:37 | 36.58478 | 27.39446 | 20728 ft | 440 kts | 113° |
| 2026-05-08 01:38 | 36.57258 | 27.42909 | 20238 ft | 436 kts | 114° |
| 2026-05-08 01:38 | 36.56043 | 27.46354 | 19749 ft | 433 kts | 114° |
| 2026-05-08 01:38 | 36.54837 | 27.49768 | 19283 ft | 429 kts | 114° |
| 2026-05-08 01:38 | 36.53640 | 27.53152 | 18814 ft | 426 kts | 114° |
| 2026-05-08 01:39 | 36.52447 | 27.56522 | 18352 ft | 423 kts | 114° |
| 2026-05-08 01:39 | 36.51263 | 27.59863 | 17809 ft | 420 kts | 114° |
| 2026-05-08 01:39 | 36.50458 | 27.62133 | 17450 ft | 418 kts | 114° |
| 2026-05-08 01:39 | 36.49273 | 27.65471 | 16943 ft | 416 kts | 114° |
| 2026-05-08 01:40 | 36.48122 | 27.68709 | 16437 ft | 413 kts | 114° |
| 2026-05-08 01:40 | 36.47039 | 27.71757 | 15963 ft | 411 kts | 114° |
| 2026-05-08 01:40 | 36.45989 | 27.75037 | 15486 ft | 408 kts | 110° |
| 2026-05-08 01:40 | 36.45256 | 27.77477 | 15133 ft | 406 kts | 110° |
| 2026-05-08 01:41 | 36.44453 | 27.80153 | 14742 ft | 404 kts | 110° |
| 2026-05-08 01:41 | 36.43498 | 27.83333 | 14284 ft | 402 kts | 110° |
| 2026-05-08 01:41 | 36.42526 | 27.86570 | 13815 ft | 399 kts | 110° |
| 2026-05-08 01:41 | 36.41557 | 27.89794 | 13286 ft | 397 kts | 110° |
| 2026-05-08 01:42 | 36.40594 | 27.92994 | 12790 ft | 395 kts | 110° |
| 2026-05-08 01:42 | 36.39634 | 27.96179 | 12284 ft | 392 kts | 109° |
| 2026-05-08 01:42 | 36.38680 | 27.99341 | 11791 ft | 390 kts | 109° |
| 2026-05-08 01:42 | 36.37733 | 28.02479 | 11312 ft | 388 kts | 109° |
| 2026-05-08 01:43 | 36.36787 | 28.05607 | 10832 ft | 386 kts | 109° |
| 2026-05-08 01:43 | 36.35849 | 28.08709 | 10376 ft | 384 kts | 109° |
| 2026-05-08 01:43 | 36.34911 | 28.11802 | 9913 ft | 382 kts | 109° |
| 2026-05-08 01:43 | 36.33979 | 28.14871 | 9402 ft | 380 kts | 109° |
| 2026-05-08 01:44 | 36.33049 | 28.17933 | 8911 ft | 377 kts | 109° |
| 2026-05-08 01:44 | 36.32550 | 28.19574 | 8639 ft | 376 kts | 109° |
| 2026-05-08 01:44 | 36.31632 | 28.22593 | 8179 ft | 372 kts | 109° |
| 2026-05-08 01:44 | 36.30755 | 28.25474 | 7883 ft | 355 kts | 109° |
| 2026-05-08 01:45 | 36.29897 | 28.28287 | 7289 ft | 342 kts | 110° |
| 2026-05-08 01:45 | 36.29069 | 28.31003 | 6706 ft | 331 kts | 110° |
| 2026-05-08 01:45 | 36.28267 | 28.33630 | 6152 ft | 320 kts | 110° |
| 2026-05-08 01:45 | 36.27500 | 28.36167 | 5640 ft | 308 kts | 108° |
| 2026-05-08 01:46 | 36.27293 | 28.38725 | 5200 ft | 294 kts | 79° |
| 2026-05-08 01:46 | 36.28014 | 28.40968 | 4889 ft | 278 kts | 56° |
| 2026-05-08 01:46 | 36.29248 | 28.42722 | 4587 ft | 263 kts | 39° |
| 2026-05-08 01:46 | 36.30775 | 28.43844 | 4279 ft | 250 kts | 20° |
| 2026-05-08 01:47 | 36.32200 | 28.44223 | 4046 ft | 239 kts | 4° |
| 2026-05-08 01:47 | 36.33809 | 28.44042 | 3808 ft | 227 kts | 346° |
| 2026-05-08 01:48 | 36.36379 | 28.42197 | 3328 ft | 206 kts | 322° |
| 2026-05-08 01:48 | 36.37452 | 28.41120 | 3134 ft | 192 kts | 322° |
| 2026-05-08 01:48 | 36.38480 | 28.40108 | 2909 ft | 183 kts | 323° |
| 2026-05-08 01:48 | 36.39454 | 28.39159 | 2754 ft | 170 kts | 323° |
| 2026-05-08 01:49 | 36.40352 | 28.38296 | 2543 ft | 158 kts | 324° |
| 2026-05-08 01:49 | 36.41204 | 28.37499 | 2292 ft | 149 kts | 324° |
| 2026-05-08 01:49 | 36.42012 | 28.36743 | 2044 ft | 145 kts | 324° |
| 2026-05-08 01:49 | 36.42821 | 28.35986 | 1983 ft | 146 kts | 323° |
| 2026-05-08 01:50 | 36.43631 | 28.35219 | 2058 ft | 147 kts | 324° |
| 2026-05-08 01:50 | 36.44445 | 28.34447 | 2103 ft | 147 kts | 324° |
| 2026-05-08 01:50 | 36.45261 | 28.33673 | 2135 ft | 148 kts | 324° |
| 2026-05-08 01:50 | 36.46076 | 28.32901 | 2074 ft | 147 kts | 324° |
| 2026-05-08 01:51 | 36.46667 | 28.31890 | 1945 ft | 148 kts | 284° |
| 2026-05-08 01:51 | 36.46698 | 28.30611 | 1988 ft | 150 kts | 267° |
| 2026-05-08 01:51 | 36.46517 | 28.29324 | 2050 ft | 152 kts | 257° |
| 2026-05-08 01:51 | 36.46213 | 28.28063 | 2039 ft | 153 kts | 254° |
| 2026-05-08 01:52 | 36.45868 | 28.26815 | 2021 ft | 152 kts | 252° |
| 2026-05-08 01:52 | 36.45509 | 28.25576 | 2009 ft | 153 kts | 252° |
| 2026-05-08 01:52 | 36.45252 | 28.24696 | 1992 ft | 152 kts | 252° |
| 2026-05-08 01:52 | 36.44889 | 28.23455 | 1999 ft | 152 kts | 252° |
| 2026-05-08 01:53 | 36.44529 | 28.22227 | 1919 ft | 151 kts | 252° |
| 2026-05-08 01:53 | 36.44167 | 28.20990 | 1760 ft | 152 kts | 251° |
| 2026-05-08 01:53 | 36.43805 | 28.19756 | 1571 ft | 152 kts | 252° |
| 2026-05-08 01:53 | 36.43443 | 28.18524 | 1384 ft | 151 kts | 251° |
| 2026-05-08 01:54 | 36.43086 | 28.17304 | 1185 ft | 150 kts | 251° |
| 2026-05-08 01:54 | 36.42730 | 28.16092 | 992 ft | 149 kts | 251° |
| 2026-05-08 01:54 | 36.42373 | 28.14878 | 816 ft | 149 kts | 250° |
| 2026-05-08 01:54 | 36.42029 | 28.13718 | 621 ft | 139 kts | 251° |
| 2026-05-08 01:55 | 36.41712 | 28.12605 | 409 ft | 134 kts | 250° |
| 2026-05-08 01:55 | 36.41395 | 28.11538 | 265 ft | 129 kts | 250° |
| 2026-05-08 01:55 | 36.41081 | 28.10500 | 99 ft | 128 kts | 251° |
| 2026-05-08 01:55 | 36.40801 | 28.09531 | 31 ft | 104 kts | 249° |
| 2026-05-08 01:56 | 36.40614 | 28.08891 | 28 ft | 82 kts | 250° |
| 2026-05-08 01:56 | 36.40434 | 28.08289 | 27 ft | 72 kts | 251° |
| 2026-05-08 01:56 | 36.40306 | 28.07985 | 29 ft | 47 kts | 219° |
| 2026-05-08 01:56 | 36.40204 | 28.07880 | 27 ft | 0 kts | 220° |
| 2026-05-08 01:57 | 36.40202 | 28.07878 | 27 ft | 1 kts | 220° |
| 2026-05-08 01:57 | 36.40180 | 28.07861 | 27 ft | 5 kts | 199° |
| 2026-05-08 01:57 | 36.40152 | 28.07873 | 28 ft | 8 kts | 129° |
| 2026-05-08 01:57 | 36.40159 | 28.07959 | 29 ft | 13 kts | 70° |
| 2026-05-08 01:58 | 36.40205 | 28.08114 | 29 ft | 15 kts | 70° |
| 2026-05-08 01:58 | 36.40231 | 28.08202 | 30 ft | 17 kts | 70° |
| 2026-05-08 01:58 | 36.40273 | 28.08344 | 30 ft | 18 kts | 70° |
| 2026-05-08 01:58 | 36.40318 | 28.08499 | 30 ft | 20 kts | 69° |
| 2026-05-08 01:59 | 36.40368 | 28.08667 | 31 ft | 21 kts | 70° |
| 2026-05-08 01:59 | 36.40389 | 28.08829 | 31 ft | 16 kts | 129° |
| 2026-05-08 01:59 | 36.40311 | 28.08876 | 31 ft | 10 kts | 162° |
| 2026-05-08 01:59 | 36.40304 | 28.08879 | 31 ft | 0 kts | 159° |